Terminal Aerodrome Forecast
Issued by NWS Greer, SC

Home | Current Version | Previous Version | Text Only | Print | Product List | Glossary On
Versions: 1 2 3 4 5 6 7 8 9 10 11 12 13 14 15
000
FTUS42 KGSP 242338
TAFGSP
TAF
KGSP 242338Z 2500/2524 21005KT P6SM BKN250
     FM250600 20004KT P6SM BKN100
     FM251200 19005KT 5SM -RA BR OVC015
     FM251400 18005KT 3SM RA BR OVC008
     FM251600 19005KT 1 1/2SM RA BR OVC005
     FM252300 23005KT 6SM -RA BR OVC008=

USA.gov is the U.S. government's official web portal to all federal, state and local government web resources and services.